Burlington, WA

3:24 PM PST on February 09, 2016 (GMT -0800)
Near Vintage Apts | | Change Station
CLOSE
Current Station
Personal Weather Station
Location: Mount Vernon, WA
Elevation: 33 ft
Nearby Weather Stations

Elev 33 ft 48.44 °N, 122.33 °W | Updated 8 seconds ago

Clear
Clear
61.3 °F
Feels Like 61.3 °F
N
1.7
Wind Variable Wind from West

Today
High -- | Low -- °F
--% Chance of Precip.
Yesterday
High -- | Low -- °F
Precip. -- in
Pressure 30.15 in
Visibility 10.0 miles
Clouds Few 2000 ft
Few 14000 ft
Mostly Cloudy 25000 ft
Dew Point 47 °F
Humidity 59%
Rainfall 0.00 in
Snow Depth Not available.
7:27 AM 5:20 PM
New Moon, 3% visible
METAR KNUW 092256Z 26004KT 10SM FEW020 FEW140 BKN250 11/08 A3015 RMK AO2 SLP210 T01110078 $
Pressure 30.15 in
Visibility 10.0 miles
Clouds Few 2000 ft
Few 14000 ft
Mostly Cloudy 25000 ft
Dew Point 47 °F
Humidity 59%
Rainfall 0.00 in
Snow Depth Not available.
7:27 AM 5:20 PM
New Moon, 3% visible
METAR KNUW 092256Z 26004KT 10SM FEW020 FEW140 BKN250 11/08 A3015 RMK AO2 SLP210 T01110078 $

10-Day Weather Forecast

Almanac

Astronomy

Feb. 09, 2016 Rise Set
Actual Time
Civil Twilight
Nautical Twilight
Astronomical Twilight
Moon
Length of Visible Light
Length of Day
Tomorrow will be .
, % of the Moon is Illuminated

Today's Extremes

State Highs State Lows

Community

WunderPhotos

Upload Photos

1,891,744 photos uploaded!

WunderBlog® & News

Nearby

Air Quality

  Air Quality AQ Index Pollutant
Not available.

Snow Depth

Station Depth Elevation

Earthquake Activity

City Distance Mag. Time & Date
Minimum magnitude displayed is 2.5.

Coastal Water Temperatures

Place Temperature

Stations

Nearby Weather Stations

Station Location Temp. Windchill Dew Point Humidity Wind Precip. Elev Updated Type
                   

Watches & Warnings

There are currently no watches in effect.